sensor_id;sensor_type;location;lat;lon;timestamp;P1;durP1;ratioP1;P2;durP2;ratioP2
75165;SDS011;63747;48.042;10.088;2023-07-08T00:00:35;12.15;;;7.38;;
75165;SDS011;63747;48.042;10.088;2023-07-08T00:03:35;9.27;;;7.00;;
75165;SDS011;63747;48.042;10.088;2023-07-08T00:06:36;9.13;;;6.55;;
75165;SDS011;63747;48.042;10.088;2023-07-08T00:09:37;9.65;;;7.00;;
75165;SDS011;63747;48.042;10.088;2023-07-08T00:12:37;9.75;;;6.50;;
75165;SDS011;63747;48.042;10.088;2023-07-08T00:15:39;8.48;;;6.55;;
75165;SDS011;63747;48.042;10.088;2023-07-08T00:18:40;9.35;;;6.50;;
75165;SDS011;63747;48.042;10.088;2023-07-08T00:24:42;9.17;;;6.47;;
75165;SDS011;63747;48.042;10.088;2023-07-08T00:30:43;8.07;;;6.10;;
75165;SDS011;63747;48.042;10.088;2023-07-08T00:33:44;8.50;;;6.35;;
75165;SDS011;63747;48.042;10.088;2023-07-08T00:36:45;7.88;;;6.60;;
75165;SDS011;63747;48.042;10.088;2023-07-08T00:39:45;8.02;;;6.60;;
75165;SDS011;63747;48.042;10.088;2023-07-08T00:42:46;8.52;;;6.70;;
75165;SDS011;63747;48.042;10.088;2023-07-08T00:45:49;8.40;;;6.53;;
75165;SDS011;63747;48.042;10.088;2023-07-08T00:55:20;10.38;;;6.40;;
75165;SDS011;63747;48.042;10.088;2023-07-08T00:58:21;8.30;;;5.82;;
75165;SDS011;63747;48.042;10.088;2023-07-08T01:01:24;7.32;;;5.93;;
75165;SDS011;63747;48.042;10.088;2023-07-08T01:07:43;9.13;;;7.05;;
75165;SDS011;63747;48.042;10.088;2023-07-08T01:10:46;9.60;;;6.65;;
75165;SDS011;63747;48.042;10.088;2023-07-08T01:13:51;9.15;;;6.75;;
75165;SDS011;63747;48.042;10.088;2023-07-08T01:16:53;7.88;;;6.80;;
75165;SDS011;63747;48.042;10.088;2023-07-08T01:19:53;9.77;;;6.93;;
75165;SDS011;63747;48.042;10.088;2023-07-08T01:22:55;9.50;;;6.80;;
75165;SDS011;63747;48.042;10.088;2023-07-08T01:25:56;9.98;;;7.20;;
75165;SDS011;63747;48.042;10.088;2023-07-08T01:28:57;8.98;;;7.05;;
75165;SDS011;63747;48.042;10.088;2023-07-08T01:31:58;11.30;;;7.07;;
75165;SDS011;63747;48.042;10.088;2023-07-08T01:35:02;9.30;;;7.20;;
75165;SDS011;63747;48.042;10.088;2023-07-08T01:41:05;8.73;;;6.15;;
75165;SDS011;63747;48.042;10.088;2023-07-08T01:44:18;7.95;;;7.03;;
75165;SDS011;63747;48.042;10.088;2023-07-08T01:47:22;9.73;;;7.10;;
75165;SDS011;63747;48.042;10.088;2023-07-08T01:53:32;12.05;;;6.82;;
75165;SDS011;63747;48.042;10.088;2023-07-08T01:56:34;10.20;;;6.90;;
75165;SDS011;63747;48.042;10.088;2023-07-08T01:59:35;10.63;;;6.80;;
75165;SDS011;63747;48.042;10.088;2023-07-08T02:02:35;7.85;;;6.05;;
75165;SDS011;63747;48.042;10.088;2023-07-08T02:05:36;9.68;;;7.03;;
75165;SDS011;63747;48.042;10.088;2023-07-08T02:08:37;9.85;;;7.10;;
75165;SDS011;63747;48.042;10.088;2023-07-08T02:11:37;9.82;;;7.03;;
75165;SDS011;63747;48.042;10.088;2023-07-08T02:14:38;9.02;;;6.55;;
75165;SDS011;63747;48.042;10.088;2023-07-08T02:17:38;7.90;;;6.75;;
75165;SDS011;63747;48.042;10.088;2023-07-08T02:20:39;10.25;;;7.40;;
75165;SDS011;63747;48.042;10.088;2023-07-08T02:23:40;10.00;;;7.28;;
75165;SDS011;63747;48.042;10.088;2023-07-08T02:26:40;9.23;;;7.43;;
75165;SDS011;63747;48.042;10.088;2023-07-08T02:29:41;8.75;;;7.45;;
75165;SDS011;63747;48.042;10.088;2023-07-08T02:32:42;10.30;;;7.20;;
75165;SDS011;63747;48.042;10.088;2023-07-08T02:35:48;10.02;;;7.30;;
75165;SDS011;63747;48.042;10.088;2023-07-08T02:38:49;10.38;;;8.13;;
75165;SDS011;63747;48.042;10.088;2023-07-08T02:41:50;10.70;;;7.93;;
75165;SDS011;63747;48.042;10.088;2023-07-08T02:44:51;11.32;;;8.00;;
75165;SDS011;63747;48.042;10.088;2023-07-08T02:47:51;11.55;;;7.68;;
75165;SDS011;63747;48.042;10.088;2023-07-08T02:50:58;9.48;;;6.65;;
75165;SDS011;63747;48.042;10.088;2023-07-08T02:54:01;10.73;;;6.90;;
75165;SDS011;63747;48.042;10.088;2023-07-08T02:57:02;11.90;;;7.45;;
75165;SDS011;63747;48.042;10.088;2023-07-08T03:00:03;10.68;;;7.55;;
75165;SDS011;63747;48.042;10.088;2023-07-08T03:03:06;10.77;;;7.40;;
75165;SDS011;63747;48.042;10.088;2023-07-08T03:06:08;10.82;;;7.72;;
75165;SDS011;63747;48.042;10.088;2023-07-08T03:09:09;10.27;;;7.47;;
75165;SDS011;63747;48.042;10.088;2023-07-08T03:12:12;9.88;;;7.03;;
75165;SDS011;63747;48.042;10.088;2023-07-08T03:15:12;11.10;;;7.35;;
75165;SDS011;63747;48.042;10.088;2023-07-08T03:18:13;10.07;;;7.60;;
75165;SDS011;63747;48.042;10.088;2023-07-08T03:21:15;10.48;;;7.97;;
75165;SDS011;63747;48.042;10.088;2023-07-08T03:24:17;10.73;;;7.65;;
75165;SDS011;63747;48.042;10.088;2023-07-08T03:27:18;9.85;;;7.30;;
75165;SDS011;63747;48.042;10.088;2023-07-08T03:30:18;9.23;;;7.53;;
75165;SDS011;63747;48.042;10.088;2023-07-08T03:33:19;11.05;;;7.95;;
75165;SDS011;63747;48.042;10.088;2023-07-08T03:36:20;10.05;;;7.30;;
75165;SDS011;63747;48.042;10.088;2023-07-08T03:39:24;10.38;;;7.90;;
75165;SDS011;63747;48.042;10.088;2023-07-08T03:45:26;9.23;;;7.43;;
75165;SDS011;63747;48.042;10.088;2023-07-08T03:48:27;11.25;;;8.02;;
75165;SDS011;63747;48.042;10.088;2023-07-08T03:51:32;11.45;;;7.80;;
75165;SDS011;63747;48.042;10.088;2023-07-08T03:54:35;10.05;;;7.88;;
75165;SDS011;63747;48.042;10.088;2023-07-08T03:57:36;11.75;;;7.80;;
75165;SDS011;63747;48.042;10.088;2023-07-08T04:00:36;11.15;;;7.88;;
75165;SDS011;63747;48.042;10.088;2023-07-08T04:03:37;9.38;;;7.65;;
75165;SDS011;63747;48.042;10.088;2023-07-08T04:06:38;9.77;;;7.57;;
75165;SDS011;63747;48.042;10.088;2023-07-08T04:09:38;11.30;;;8.40;;
75165;SDS011;63747;48.042;10.088;2023-07-08T04:12:39;12.85;;;8.60;;
75165;SDS011;63747;48.042;10.088;2023-07-08T04:18:41;10.57;;;7.67;;
75165;SDS011;63747;48.042;10.088;2023-07-08T04:21:42;11.40;;;8.13;;
75165;SDS011;63747;48.042;10.088;2023-07-08T04:24:44;12.30;;;7.68;;
75165;SDS011;63747;48.042;10.088;2023-07-08T04:27:44;26.60;;;8.60;;
75165;SDS011;63747;48.042;10.088;2023-07-08T04:30:45;15.18;;;8.48;;
75165;SDS011;63747;48.042;10.088;2023-07-08T04:33:46;10.55;;;7.45;;
75165;SDS011;63747;48.042;10.088;2023-07-08T04:36:46;11.55;;;8.45;;
75165;SDS011;63747;48.042;10.088;2023-07-08T04:39:47;11.07;;;7.93;;
75165;SDS011;63747;48.042;10.088;2023-07-08T04:42:48;10.23;;;7.63;;
75165;SDS011;63747;48.042;10.088;2023-07-08T04:45:51;12.32;;;7.53;;
75165;SDS011;63747;48.042;10.088;2023-07-08T04:48:53;12.05;;;7.00;;
75165;SDS011;63747;48.042;10.088;2023-07-08T04:51:55;9.48;;;6.53;;
75165;SDS011;63747;48.042;10.088;2023-07-08T04:54:56;12.85;;;7.45;;
75165;SDS011;63747;48.042;10.088;2023-07-08T04:57:56;10.68;;;7.13;;
75165;SDS011;63747;48.042;10.088;2023-07-08T05:00:57;12.55;;;7.43;;
75165;SDS011;63747;48.042;10.088;2023-07-08T05:03:58;15.93;;;7.45;;
75165;SDS011;63747;48.042;10.088;2023-07-08T05:06:59;10.20;;;6.70;;
75165;SDS011;63747;48.042;10.088;2023-07-08T05:10:00;10.77;;;7.38;;
75165;SDS011;63747;48.042;10.088;2023-07-08T05:13:01;8.10;;;6.82;;
75165;SDS011;63747;48.042;10.088;2023-07-08T05:16:01;12.90;;;7.50;;
75165;SDS011;63747;48.042;10.088;2023-07-08T05:19:02;10.05;;;6.60;;
75165;SDS011;63747;48.042;10.088;2023-07-08T05:25:04;10.27;;;7.17;;
75165;SDS011;63747;48.042;10.088;2023-07-08T05:28:05;8.57;;;6.40;;
75165;SDS011;63747;48.042;10.088;2023-07-08T05:31:05;13.52;;;7.13;;
75165;SDS011;63747;48.042;10.088;2023-07-08T05:34:06;11.63;;;7.05;;
75165;SDS011;63747;48.042;10.088;2023-07-08T05:37:07;9.23;;;6.65;;
75165;SDS011;63747;48.042;10.088;2023-07-08T05:40:08;11.50;;;6.90;;
75165;SDS011;63747;48.042;10.088;2023-07-08T05:43:09;11.55;;;6.72;;
75165;SDS011;63747;48.042;10.088;2023-07-08T05:46:10;8.57;;;6.65;;
75165;SDS011;63747;48.042;10.088;2023-07-08T05:49:10;10.10;;;6.80;;
75165;SDS011;63747;48.042;10.088;2023-07-08T05:52:11;10.38;;;6.40;;
75165;SDS011;63747;48.042;10.088;2023-07-08T05:55:12;11.70;;;7.88;;
75165;SDS011;63747;48.042;10.088;2023-07-08T05:58:12;8.50;;;6.25;;
75165;SDS011;63747;48.042;10.088;2023-07-08T06:01:15;10.07;;;6.57;;
75165;SDS011;63747;48.042;10.088;2023-07-08T06:04:16;11.30;;;6.10;;
75165;SDS011;63747;48.042;10.088;2023-07-08T06:07:16;8.88;;;6.53;;
75165;SDS011;63747;48.042;10.088;2023-07-08T06:10:17;8.35;;;6.65;;
75165;SDS011;63747;48.042;10.088;2023-07-08T06:13:18;11.27;;;6.10;;
75165;SDS011;63747;48.042;10.088;2023-07-08T06:16:18;9.70;;;6.15;;
75165;SDS011;63747;48.042;10.088;2023-07-08T06:19:19;9.00;;;6.10;;
75165;SDS011;63747;48.042;10.088;2023-07-08T06:22:20;9.20;;;6.05;;
75165;SDS011;63747;48.042;10.088;2023-07-08T06:25:20;8.73;;;5.85;;
75165;SDS011;63747;48.042;10.088;2023-07-08T06:28:21;10.23;;;5.88;;
75165;SDS011;63747;48.042;10.088;2023-07-08T06:34:23;10.07;;;5.80;;
75165;SDS011;63747;48.042;10.088;2023-07-08T06:40:24;8.60;;;5.53;;
75165;SDS011;63747;48.042;10.088;2023-07-08T06:46:26;8.50;;;5.57;;
75165;SDS011;63747;48.042;10.088;2023-07-08T06:49:27;7.25;;;5.28;;
75165;SDS011;63747;48.042;10.088;2023-07-08T06:52:30;8.43;;;5.60;;
75165;SDS011;63747;48.042;10.088;2023-07-08T06:55:35;8.65;;;6.10;;
75165;SDS011;63747;48.042;10.088;2023-07-08T07:01:36;9.47;;;5.30;;
75165;SDS011;63747;48.042;10.088;2023-07-08T07:07:37;6.37;;;4.20;;
75165;SDS011;63747;48.042;10.088;2023-07-08T07:13:39;6.83;;;4.70;;
75165;SDS011;63747;48.042;10.088;2023-07-08T07:19:42;7.68;;;4.78;;
75165;SDS011;63747;48.042;10.088;2023-07-08T07:25:43;7.00;;;4.30;;
75165;SDS011;63747;48.042;10.088;2023-07-08T07:28:47;10.77;;;4.80;;
75165;SDS011;63747;48.042;10.088;2023-07-08T07:34:48;7.70;;;5.07;;
75165;SDS011;63747;48.042;10.088;2023-07-08T07:37:50;6.82;;;4.10;;
75165;SDS011;63747;48.042;10.088;2023-07-08T07:43:53;6.13;;;3.90;;
75165;SDS011;63747;48.042;10.088;2023-07-08T07:49:54;7.03;;;3.80;;
75165;SDS011;63747;48.042;10.088;2023-07-08T07:55:56;6.20;;;3.87;;
75165;SDS011;63747;48.042;10.088;2023-07-08T07:58:58;6.85;;;3.70;;
75165;SDS011;63747;48.042;10.088;2023-07-08T08:01:59;7.05;;;3.65;;
75165;SDS011;63747;48.042;10.088;2023-07-08T08:04:59;7.68;;;4.10;;
75165;SDS011;63747;48.042;10.088;2023-07-08T08:08:00;6.32;;;3.88;;
75165;SDS011;63747;48.042;10.088;2023-07-08T08:11:04;6.47;;;3.65;;
75165;SDS011;63747;48.042;10.088;2023-07-08T08:14:04;6.47;;;4.00;;
75165;SDS011;63747;48.042;10.088;2023-07-08T08:17:05;9.05;;;3.80;;
75165;SDS011;63747;48.042;10.088;2023-07-08T08:20:06;8.32;;;4.20;;
75165;SDS011;63747;48.042;10.088;2023-07-08T08:23:08;5.65;;;3.92;;
75165;SDS011;63747;48.042;10.088;2023-07-08T08:26:08;6.47;;;4.10;;
75165;SDS011;63747;48.042;10.088;2023-07-08T08:29:09;8.45;;;4.60;;
75165;SDS011;63747;48.042;10.088;2023-07-08T08:32:10;5.65;;;4.22;;
75165;SDS011;63747;48.042;10.088;2023-07-08T08:35:11;6.72;;;4.07;;
75165;SDS011;63747;48.042;10.088;2023-07-08T08:38:11;7.15;;;3.90;;
75165;SDS011;63747;48.042;10.088;2023-07-08T08:41:13;10.55;;;4.55;;
75165;SDS011;63747;48.042;10.088;2023-07-08T08:44:16;6.13;;;4.65;;
75165;SDS011;63747;48.042;10.088;2023-07-08T08:47:32;6.57;;;4.30;;
75165;SDS011;63747;48.042;10.088;2023-07-08T08:50:41;5.80;;;4.18;;
75165;SDS011;63747;48.042;10.088;2023-07-08T08:53:47;7.28;;;4.18;;
75165;SDS011;63747;48.042;10.088;2023-07-08T09:00:13;6.75;;;3.85;;
75165;SDS011;63747;48.042;10.088;2023-07-08T09:03:25;6.15;;;4.13;;
75165;SDS011;63747;48.042;10.088;2023-07-08T09:06:34;7.75;;;4.18;;
75165;SDS011;63747;48.042;10.088;2023-07-08T09:09:40;7.93;;;3.90;;
75165;SDS011;63747;48.042;10.088;2023-07-08T09:12:48;5.47;;;4.10;;
75165;SDS011;63747;48.042;10.088;2023-07-08T09:19:26;6.88;;;3.80;;
75165;SDS011;63747;48.042;10.088;2023-07-08T09:22:38;8.00;;;3.47;;
75165;SDS011;63747;48.042;10.088;2023-07-08T09:29:07;4.90;;;3.53;;
75165;SDS011;63747;48.042;10.088;2023-07-08T09:32:20;5.68;;;2.78;;
75165;SDS011;63747;48.042;10.088;2023-07-08T09:35:24;7.35;;;3.20;;
75165;SDS011;63747;48.042;10.088;2023-07-08T09:38:27;7.63;;;3.03;;
75165;SDS011;63747;48.042;10.088;2023-07-08T09:41:34;6.28;;;2.80;;
75165;SDS011;63747;48.042;10.088;2023-07-08T09:44:36;4.25;;;2.28;;
75165;SDS011;63747;48.042;10.088;2023-07-08T09:47:38;2.35;;;1.80;;
75165;SDS011;63747;48.042;10.088;2023-07-08T09:50:42;3.25;;;1.60;;
75165;SDS011;63747;48.042;10.088;2023-07-08T09:53:44;4.13;;;1.80;;
75165;SDS011;63747;48.042;10.088;2023-07-08T09:56:49;3.42;;;1.60;;
75165;SDS011;63747;48.042;10.088;2023-07-08T10:00:13;3.88;;;2.00;;
75165;SDS011;63747;48.042;10.088;2023-07-08T10:03:17;3.38;;;1.73;;
75165;SDS011;63747;48.042;10.088;2023-07-08T10:06:24;2.60;;;1.70;;
75165;SDS011;63747;48.042;10.088;2023-07-08T10:09:26;3.35;;;1.77;;
75165;SDS011;63747;48.042;10.088;2023-07-08T10:12:27;2.88;;;1.63;;
75165;SDS011;63747;48.042;10.088;2023-07-08T10:15:32;3.53;;;1.80;;
75165;SDS011;63747;48.042;10.088;2023-07-08T10:18:37;4.65;;;1.90;;
75165;SDS011;63747;48.042;10.088;2023-07-08T10:31:38;4.95;;;2.80;;
75165;SDS011;63747;48.042;10.088;2023-07-08T10:34:49;1.90;;;1.50;;
75165;SDS011;63747;48.042;10.088;2023-07-08T10:38:13;3.17;;;1.70;;
75165;SDS011;63747;48.042;10.088;2023-07-08T10:41:55;2.55;;;2.05;;
75165;SDS011;63747;48.042;10.088;2023-07-08T10:55:02;2.80;;;1.70;;
75165;SDS011;63747;48.042;10.088;2023-07-08T11:08:26;3.92;;;1.80;;
75165;SDS011;63747;48.042;10.088;2023-07-08T11:11:42;4.82;;;2.33;;
75165;SDS011;63747;48.042;10.088;2023-07-08T11:14:54;3.30;;;2.30;;
75165;SDS011;63747;48.042;10.088;2023-07-08T11:18:06;2.83;;;1.80;;
75165;SDS011;63747;48.042;10.088;2023-07-08T11:21:26;2.80;;;1.85;;
75165;SDS011;63747;48.042;10.088;2023-07-08T11:27:41;2.70;;;1.77;;
75165;SDS011;63747;48.042;10.088;2023-07-08T11:30:43;3.50;;;1.98;;
75165;SDS011;63747;48.042;10.088;2023-07-08T11:33:48;3.92;;;2.25;;
75165;SDS011;63747;48.042;10.088;2023-07-08T11:36:50;3.47;;;2.17;;
75165;SDS011;63747;48.042;10.088;2023-07-08T11:43:05;3.05;;;2.03;;
75165;SDS011;63747;48.042;10.088;2023-07-08T11:46:06;5.57;;;2.60;;
75165;SDS011;63747;48.042;10.088;2023-07-08T11:49:12;4.10;;;2.30;;
75165;SDS011;63747;48.042;10.088;2023-07-08T11:52:15;3.70;;;2.30;;
75165;SDS011;63747;48.042;10.088;2023-07-08T11:55:22;4.00;;;2.47;;
75165;SDS011;63747;48.042;10.088;2023-07-08T11:58:29;5.20;;;2.20;;
75165;SDS011;63747;48.042;10.088;2023-07-08T12:01:41;3.28;;;2.25;;
75165;SDS011;63747;48.042;10.088;2023-07-08T12:07:55;4.95;;;2.40;;
75165;SDS011;63747;48.042;10.088;2023-07-08T12:11:10;3.42;;;2.40;;
75165;SDS011;63747;48.042;10.088;2023-07-08T12:14:12;3.63;;;2.35;;
75165;SDS011;63747;48.042;10.088;2023-07-08T12:17:14;3.08;;;2.30;;
75165;SDS011;63747;48.042;10.088;2023-07-08T12:20:37;2.75;;;2.30;;
75165;SDS011;63747;48.042;10.088;2023-07-08T12:23:43;4.10;;;2.70;;
75165;SDS011;63747;48.042;10.088;2023-07-08T12:26:45;3.30;;;2.70;;
75165;SDS011;63747;48.042;10.088;2023-07-08T12:29:46;3.83;;;2.53;;
75165;SDS011;63747;48.042;10.088;2023-07-08T12:32:47;5.35;;;2.58;;
75165;SDS011;63747;48.042;10.088;2023-07-08T12:35:47;4.63;;;2.58;;
75165;SDS011;63747;48.042;10.088;2023-07-08T12:38:49;4.47;;;2.67;;
75165;SDS011;63747;48.042;10.088;2023-07-08T12:41:50;6.60;;;3.05;;
75165;SDS011;63747;48.042;10.088;2023-07-08T12:44:51;3.25;;;2.75;;
75165;SDS011;63747;48.042;10.088;2023-07-08T12:47:52;3.92;;;2.70;;
75165;SDS011;63747;48.042;10.088;2023-07-08T12:50:52;4.20;;;2.80;;
75165;SDS011;63747;48.042;10.088;2023-07-08T12:53:53;5.25;;;2.65;;
75165;SDS011;63747;48.042;10.088;2023-07-08T12:56:54;4.75;;;2.60;;
75165;SDS011;63747;48.042;10.088;2023-07-08T12:59:55;3.65;;;2.30;;
75165;SDS011;63747;48.042;10.088;2023-07-08T13:02:59;4.82;;;2.83;;
75165;SDS011;63747;48.042;10.088;2023-07-08T13:06:05;5.28;;;2.60;;
75165;SDS011;63747;48.042;10.088;2023-07-08T13:12:30;5.60;;;2.50;;
75165;SDS011;63747;48.042;10.088;2023-07-08T13:15:35;4.22;;;2.13;;
75165;SDS011;63747;48.042;10.088;2023-07-08T13:18:42;4.47;;;2.58;;
75165;SDS011;63747;48.042;10.088;2023-07-08T13:21:43;3.33;;;2.47;;
75165;SDS011;63747;48.042;10.088;2023-07-08T13:24:45;6.13;;;2.22;;
75165;SDS011;63747;48.042;10.088;2023-07-08T13:31:01;4.32;;;2.40;;
75165;SDS011;63747;48.042;10.088;2023-07-08T13:34:16;3.75;;;2.60;;
75165;SDS011;63747;48.042;10.088;2023-07-08T13:37:19;5.13;;;2.28;;
75165;SDS011;63747;48.042;10.088;2023-07-08T13:40:26;4.13;;;2.78;;
75165;SDS011;63747;48.042;10.088;2023-07-08T13:43:28;4.68;;;2.58;;
75165;SDS011;63747;48.042;10.088;2023-07-08T13:46:44;4.55;;;2.10;;
75165;SDS011;63747;48.042;10.088;2023-07-08T13:49:56;3.22;;;2.33;;
75165;SDS011;63747;48.042;10.088;2023-07-08T13:53:15;3.95;;;2.17;;
75165;SDS011;63747;48.042;10.088;2023-07-08T13:56:24;3.10;;;2.40;;
75165;SDS011;63747;48.042;10.088;2023-07-08T13:59:28;3.78;;;2.33;;
75165;SDS011;63747;48.042;10.088;2023-07-08T14:02:30;4.93;;;2.50;;
75165;SDS011;63747;48.042;10.088;2023-07-08T14:05:32;4.57;;;2.50;;
75165;SDS011;63747;48.042;10.088;2023-07-08T14:08:33;4.38;;;2.60;;
75165;SDS011;63747;48.042;10.088;2023-07-08T14:11:33;6.13;;;2.85;;
75165;SDS011;63747;48.042;10.088;2023-07-08T14:14:34;3.90;;;2.58;;
75165;SDS011;63747;48.042;10.088;2023-07-08T14:17:35;4.22;;;2.85;;
75165;SDS011;63747;48.042;10.088;2023-07-08T14:20:38;3.67;;;2.63;;
75165;SDS011;63747;48.042;10.088;2023-07-08T14:23:38;3.45;;;2.55;;
75165;SDS011;63747;48.042;10.088;2023-07-08T14:26:43;4.20;;;2.83;;
75165;SDS011;63747;48.042;10.088;2023-07-08T14:29:48;4.57;;;2.80;;
75165;SDS011;63747;48.042;10.088;2023-07-08T14:32:50;5.18;;;2.67;;
75165;SDS011;63747;48.042;10.088;2023-07-08T14:35:51;4.30;;;2.78;;
75165;SDS011;63747;48.042;10.088;2023-07-08T14:38:51;4.07;;;2.60;;
75165;SDS011;63747;48.042;10.088;2023-07-08T14:41:52;4.55;;;2.60;;
75165;SDS011;63747;48.042;10.088;2023-07-08T14:44:53;4.45;;;2.70;;
75165;SDS011;63747;48.042;10.088;2023-07-08T14:47:54;4.65;;;2.90;;
75165;SDS011;63747;48.042;10.088;2023-07-08T14:50:56;5.32;;;2.80;;
75165;SDS011;63747;48.042;10.088;2023-07-08T14:53:56;4.63;;;2.60;;
75165;SDS011;63747;48.042;10.088;2023-07-08T14:56:57;5.15;;;2.53;;
75165;SDS011;63747;48.042;10.088;2023-07-08T14:59:59;3.97;;;2.58;;
75165;SDS011;63747;48.042;10.088;2023-07-08T15:03:00;4.70;;;2.42;;
75165;SDS011;63747;48.042;10.088;2023-07-08T15:06:01;3.83;;;2.78;;
75165;SDS011;63747;48.042;10.088;2023-07-08T15:09:02;4.57;;;2.25;;
75165;SDS011;63747;48.042;10.088;2023-07-08T15:12:03;5.97;;;3.10;;
75165;SDS011;63747;48.042;10.088;2023-07-08T15:15:04;3.03;;;2.55;;
75165;SDS011;63747;48.042;10.088;2023-07-08T15:18:12;6.55;;;2.80;;
75165;SDS011;63747;48.042;10.088;2023-07-08T15:21:15;4.78;;;2.80;;
75165;SDS011;63747;48.042;10.088;2023-07-08T15:24:16;4.32;;;2.50;;
75165;SDS011;63747;48.042;10.088;2023-07-08T15:27:17;3.85;;;2.42;;
75165;SDS011;63747;48.042;10.088;2023-07-08T15:30:22;4.03;;;2.92;;
75165;SDS011;63747;48.042;10.088;2023-07-08T15:33:25;3.63;;;2.60;;
75165;SDS011;63747;48.042;10.088;2023-07-08T15:36:26;4.18;;;2.58;;
75165;SDS011;63747;48.042;10.088;2023-07-08T15:39:27;5.32;;;2.70;;
75165;SDS011;63747;48.042;10.088;2023-07-08T15:42:27;3.80;;;2.90;;
75165;SDS011;63747;48.042;10.088;2023-07-08T15:45:29;3.92;;;2.67;;
75165;SDS011;63747;48.042;10.088;2023-07-08T15:48:32;6.10;;;3.17;;
75165;SDS011;63747;48.042;10.088;2023-07-08T15:51:33;5.70;;;2.88;;
75165;SDS011;63747;48.042;10.088;2023-07-08T15:54:33;5.50;;;3.10;;
75165;SDS011;63747;48.042;10.088;2023-07-08T15:58:09;4.20;;;2.78;;
75165;SDS011;63747;48.042;10.088;2023-07-08T16:01:03;3.57;;;2.50;;
75165;SDS011;63747;48.042;10.088;2023-07-08T16:04:04;4.25;;;2.50;;
75165;SDS011;63747;48.042;10.088;2023-07-08T16:07:07;5.70;;;2.67;;
75165;SDS011;63747;48.042;10.088;2023-07-08T16:10:09;3.60;;;2.38;;
75165;SDS011;63747;48.042;10.088;2023-07-08T16:13:10;5.30;;;2.72;;
75165;SDS011;63747;48.042;10.088;2023-07-08T16:16:12;7.75;;;2.35;;
75165;SDS011;63747;48.042;10.088;2023-07-08T16:19:13;3.58;;;2.90;;
75165;SDS011;63747;48.042;10.088;2023-07-08T16:22:14;4.57;;;2.80;;
75165;SDS011;63747;48.042;10.088;2023-07-08T16:25:16;5.40;;;2.92;;
75165;SDS011;63747;48.042;10.088;2023-07-08T16:31:33;4.13;;;2.83;;
75165;SDS011;63747;48.042;10.088;2023-07-08T16:34:34;4.57;;;3.08;;
75165;SDS011;63747;48.042;10.088;2023-07-08T16:37:35;5.95;;;2.92;;
75165;SDS011;63747;48.042;10.088;2023-07-08T16:40:35;3.67;;;2.78;;
75165;SDS011;63747;48.042;10.088;2023-07-08T16:43:36;3.65;;;2.50;;
75165;SDS011;63747;48.042;10.088;2023-07-08T16:46:37;5.97;;;2.95;;
75165;SDS011;63747;48.042;10.088;2023-07-08T16:49:38;6.45;;;2.97;;
75165;SDS011;63747;48.042;10.088;2023-07-08T16:52:39;4.13;;;2.70;;
75165;SDS011;63747;48.042;10.088;2023-07-08T16:55:40;4.60;;;3.10;;
75165;SDS011;63747;48.042;10.088;2023-07-08T16:58:40;7.18;;;5.25;;
75165;SDS011;63747;48.042;10.088;2023-07-08T17:01:41;4.97;;;3.15;;
75165;SDS011;63747;48.042;10.088;2023-07-08T17:04:46;5.25;;;3.00;;
75165;SDS011;63747;48.042;10.088;2023-07-08T17:07:51;5.73;;;2.93;;
75165;SDS011;63747;48.042;10.088;2023-07-08T17:10:52;5.00;;;3.10;;
75165;SDS011;63747;48.042;10.088;2023-07-08T17:13:53;4.57;;;3.75;;
75165;SDS011;63747;48.042;10.088;2023-07-08T17:16:54;8.38;;;5.85;;
75165;SDS011;63747;48.042;10.088;2023-07-08T17:19:58;12.88;;;11.85;;
75165;SDS011;63747;48.042;10.088;2023-07-08T17:26:10;9.00;;;8.13;;
75165;SDS011;63747;48.042;10.088;2023-07-08T17:29:11;8.93;;;8.02;;
75165;SDS011;63747;48.042;10.088;2023-07-08T17:32:11;17.52;;;13.57;;
75165;SDS011;63747;48.042;10.088;2023-07-08T17:35:13;7.55;;;5.40;;
75165;SDS011;63747;48.042;10.088;2023-07-08T17:38:38;4.47;;;3.08;;
75165;SDS011;63747;48.042;10.088;2023-07-08T17:41:45;4.63;;;4.13;;
75165;SDS011;63747;48.042;10.088;2023-07-08T17:44:49;6.05;;;4.60;;
75165;SDS011;63747;48.042;10.088;2023-07-08T17:47:49;5.72;;;3.83;;
75165;SDS011;63747;48.042;10.088;2023-07-08T17:50:50;3.72;;;2.83;;
75165;SDS011;63747;48.042;10.088;2023-07-08T17:53:52;4.35;;;2.53;;
75165;SDS011;63747;48.042;10.088;2023-07-08T17:56:53;4.00;;;3.00;;
75165;SDS011;63747;48.042;10.088;2023-07-08T17:59:56;10.48;;;8.10;;
75165;SDS011;63747;48.042;10.088;2023-07-08T18:02:57;23.52;;;15.35;;
75165;SDS011;63747;48.042;10.088;2023-07-08T18:05:58;6.45;;;4.40;;
75165;SDS011;63747;48.042;10.088;2023-07-08T18:08:59;4.70;;;3.67;;
75165;SDS011;63747;48.042;10.088;2023-07-08T18:11:59;4.97;;;3.40;;
75165;SDS011;63747;48.042;10.088;2023-07-08T18:15:00;5.32;;;3.00;;
75165;SDS011;63747;48.042;10.088;2023-07-08T18:18:02;4.07;;;2.75;;
75165;SDS011;63747;48.042;10.088;2023-07-08T18:21:04;3.97;;;2.90;;
75165;SDS011;63747;48.042;10.088;2023-07-08T18:24:11;3.95;;;2.90;;
75165;SDS011;63747;48.042;10.088;2023-07-08T18:27:13;3.90;;;2.47;;
75165;SDS011;63747;48.042;10.088;2023-07-08T18:30:16;4.28;;;2.90;;
75165;SDS011;63747;48.042;10.088;2023-07-08T18:33:18;5.00;;;2.92;;
75165;SDS011;63747;48.042;10.088;2023-07-08T18:36:19;4.90;;;2.83;;
75165;SDS011;63747;48.042;10.088;2023-07-08T18:39:19;6.68;;;3.53;;
75165;SDS011;63747;48.042;10.088;2023-07-08T18:42:20;5.28;;;3.35;;
75165;SDS011;63747;48.042;10.088;2023-07-08T18:45:21;3.50;;;2.55;;
75165;SDS011;63747;48.042;10.088;2023-07-08T18:48:22;4.90;;;3.13;;
75165;SDS011;63747;48.042;10.088;2023-07-08T18:51:24;6.50;;;2.88;;
75165;SDS011;63747;48.042;10.088;2023-07-08T18:54:36;6.68;;;2.60;;
75165;SDS011;63747;48.042;10.088;2023-07-08T18:57:37;3.92;;;2.90;;
75165;SDS011;63747;48.042;10.088;2023-07-08T19:00:38;4.88;;;3.08;;
75165;SDS011;63747;48.042;10.088;2023-07-08T19:03:40;5.00;;;2.92;;
75165;SDS011;63747;48.042;10.088;2023-07-08T19:06:40;5.65;;;3.60;;
75165;SDS011;63747;48.042;10.088;2023-07-08T19:09:41;5.97;;;3.33;;
75165;SDS011;63747;48.042;10.088;2023-07-08T19:12:48;4.82;;;3.15;;
75165;SDS011;63747;48.042;10.088;2023-07-08T19:15:51;4.80;;;3.10;;
75165;SDS011;63747;48.042;10.088;2023-07-08T19:18:52;6.22;;;3.80;;
75165;SDS011;63747;48.042;10.088;2023-07-08T19:21:53;6.32;;;3.85;;
75165;SDS011;63747;48.042;10.088;2023-07-08T19:24:57;5.38;;;3.67;;
75165;SDS011;63747;48.042;10.088;2023-07-08T19:27:58;5.68;;;3.40;;
75165;SDS011;63747;48.042;10.088;2023-07-08T19:30:58;6.47;;;3.20;;
75165;SDS011;63747;48.042;10.088;2023-07-08T19:34:00;7.38;;;3.88;;
75165;SDS011;63747;48.042;10.088;2023-07-08T19:37:04;12.30;;;5.20;;
75165;SDS011;63747;48.042;10.088;2023-07-08T19:40:05;12.50;;;9.07;;
75165;SDS011;63747;48.042;10.088;2023-07-08T19:43:09;11.27;;;8.15;;
75165;SDS011;63747;48.042;10.088;2023-07-08T19:46:14;6.97;;;6.28;;
75165;SDS011;63747;48.042;10.088;2023-07-08T19:49:15;9.90;;;6.80;;
75165;SDS011;63747;48.042;10.088;2023-07-08T19:52:16;13.82;;;8.85;;
75165;SDS011;63747;48.042;10.088;2023-07-08T19:55:17;13.90;;;12.07;;
75165;SDS011;63747;48.042;10.088;2023-07-08T19:58:18;15.02;;;13.50;;
75165;SDS011;63747;48.042;10.088;2023-07-08T20:01:18;17.60;;;14.70;;
75165;SDS011;63747;48.042;10.088;2023-07-08T20:04:21;12.45;;;10.15;;
75165;SDS011;63747;48.042;10.088;2023-07-08T20:07:22;27.25;;;17.05;;
75165;SDS011;63747;48.042;10.088;2023-07-08T20:10:23;7.40;;;5.57;;